Time;durP1;ratioP1;P1;durP2;ratioP2;P2;SDS_P1;SDS_P2;PMS_P1;PMS_P2;Temp;Humidity;BMP_temperature;BMP_pressure;BME280_temperature;BME280_humidity;BME280_pressure;Samples;Min_cycle;Max_cycle;Signal;HPM_P1;HPM_P2
2023/04/04 00:02:06;;;;;;;;;1.25;1.25;;;;;22.16;37.98;101864.84;5082615;27;45414;-69
2023/04/04 00:04:31;;;;;;;;;2.75;1.00;;;;;22.16;37.47;101870.16;5070452;27;45277;-69
2023/04/04 00:06:57;;;;;;;;;2.00;2.00;;;;;22.13;37.67;101873.88;5066376;27;46927;-69
2023/04/04 00:09:22;;;;;;;;;2.75;1.00;;;;;22.12;37.59;101868.63;5101519;27;45732;-69
2023/04/04 00:11:48;;;;;;;;;3.75;3.00;;;;;22.13;37.27;101865.00;5064549;28;65485;-69
2023/04/04 00:14:13;;;;;;;;;2.75;2.75;;;;;22.12;37.23;101871.31;5051465;27;45521;-69
2023/04/04 00:16:39;;;;;;;;;5.50;3.00;;;;;22.11;37.29;101874.91;5090818;27;67397;-69
2023/04/04 00:19:04;;;;;;;;;2.00;1.00;;;;;22.09;37.63;101869.66;5077063;27;45340;-69
2023/04/04 00:21:29;;;;;;;;;3.25;2.25;;;;;22.10;37.22;101873.19;5077330;27;61630;-69
2023/04/04 00:23:58;;;;;;;;;3.25;2.00;;;;;22.09;37.19;101882.13;5097557;27;72348;-69
2023/04/04 00:26:25;;;;;;;;;5.00;3.00;;;;;22.09;37.59;101877.66;5093741;27;45571;-69
2023/04/04 00:28:50;;;;;;;;;2.00;1.75;;;;;22.05;37.58;101862.78;5082334;27;45323;-69
2023/04/04 00:31:16;;;;;;;;;3.00;3.00;;;;;22.02;37.40;101862.97;5064242;27;45547;-69
2023/04/04 00:33:42;;;;;;;;;2.25;2.25;;;;;22.05;37.70;101873.44;5092755;27;45464;-69
2023/04/04 00:36:07;;;;;;;;;1.50;1.50;;;;;22.02;37.24;101872.78;5074418;27;63911;-70
2023/04/04 00:38:33;;;;;;;;;2.25;2.25;;;;;22.01;37.40;101871.91;5075202;28;45591;-69
2023/04/04 00:40:58;;;;;;;;;2.00;2.00;;;;;22.02;36.91;101870.09;5051208;28;45498;-69
2023/04/04 00:43:24;;;;;;;;;5.00;3.00;;;;;22.03;37.62;101874.47;5058369;28;69211;-69
2023/04/04 00:45:50;;;;;;;;;3.50;3.25;;;;;21.97;37.00;101863.25;5055526;28;73736;-69
2023/04/04 00:48:16;;;;;;;;;2.25;2.25;;;;;21.99;37.48;101863.13;5047240;28;63325;-69
2023/04/04 00:50:41;;;;;;;;;2.00;2.00;;;;;21.99;37.16;101869.34;5060805;28;45390;-70
2023/04/04 00:53:07;;;;;;;;;2.00;2.00;;;;;21.97;37.56;101867.69;5055440;28;62005;-70
2023/04/04 00:55:32;;;;;;;;;4.00;2.00;;;;;21.96;37.20;101872.16;5069636;28;46395;-70
2023/04/04 00:57:59;;;;;;;;;3.00;3.00;;;;;21.96;37.63;101869.50;5040163;28;45444;-70
2023/04/04 01:00:25;;;;;;;;;2.00;2.00;;;;;21.94;36.87;101866.06;5050819;28;45497;-70
2023/04/04 01:02:50;;;;;;;;;3.75;2.50;;;;;21.95;37.26;101862.44;5056216;28;45524;-70
2023/04/04 01:05:16;;;;;;;;;3.25;2.00;;;;;21.93;37.45;101848.34;5053705;28;46965;-70
2023/04/04 01:07:41;;;;;;;;;4.50;2.00;;;;;21.93;37.44;101851.00;5059711;28;45313;-70
2023/04/04 01:10:07;;;;;;;;;2.25;2.00;;;;;21.92;37.08;101849.31;5052229;28;56344;-69
2023/04/04 01:12:33;;;;;;;;;3.50;2.00;;;;;21.93;36.87;101851.00;5069330;28;45454;-69
2023/04/04 01:14:59;;;;;;;;;6.75;2.00;;;;;21.92;36.97;101854.66;5056554;28;45332;-69
2023/04/04 01:17:26;;;;;;;;;3.25;3.25;;;;;21.91;37.13;101854.72;5051821;28;70774;-70
2023/04/04 01:20:12;;;;;;;;;3.00;2.75;;;;;21.91;37.50;101852.91;5056706;28;45501;-70
2023/04/04 01:22:38;;;;;;;;;2.00;2.00;;;;;21.90;36.99;101858.31;5075378;28;45352;-69
2023/04/04 01:25:04;;;;;;;;;4.00;2.50;;;;;21.90;37.20;101853.88;5050768;28;46417;-69
2023/04/04 01:27:30;;;;;;;;;4.50;4.00;;;;;21.89;37.45;101860.16;5044746;28;45340;-69
2023/04/04 01:29:55;;;;;;;;;3.00;3.00;;;;;21.85;36.97;101855.06;5051593;28;45480;-69
2023/04/04 01:32:32;;;;;;;;;3.75;2.25;;;;;21.84;37.11;101851.53;5054925;28;57578;-69
2023/04/04 01:35:15;;;;;;;;;3.25;3.00;;;;;21.87;36.75;101861.16;5054412;28;47042;-69
2023/04/04 01:37:48;;;;;;;;;5.25;3.00;;;;;21.85;36.67;101858.59;5081871;27;45499;-69
2023/04/04 01:40:20;;;;;;;;;2.00;2.00;;;;;21.86;37.24;101862.13;5067166;27;45308;-70
2023/04/04 01:42:46;;;;;;;;;4.00;4.00;;;;;21.83;37.26;101859.63;5095525;27;45490;-70
2023/04/04 01:45:12;;;;;;;;;4.00;2.50;;;;;21.82;37.10;101861.44;5079982;27;45543;-69
2023/04/04 01:47:41;;;;;;;;;3.75;3.00;;;;;21.81;37.13;101873.03;5079576;27;45606;-69
2023/04/04 01:50:08;;;;;;;;;3.25;2.00;;;;;21.83;37.13;101872.94;5071807;28;46354;-69
2023/04/04 01:52:34;;;;;;;;;2.00;2.00;;;;;21.81;36.86;101878.34;5062348;27;46238;-70
2023/04/04 01:54:59;;;;;;;;;3.50;3.50;;;;;21.81;37.25;101870.38;5061726;27;47687;-70
2023/04/04 01:57:25;;;;;;;;;3.00;3.00;;;;;21.80;36.68;101874.00;5068103;28;58159;-69
2023/04/04 01:59:50;;;;;;;;;2.75;2.75;;;;;21.81;37.18;101873.03;5076758;27;45985;-69
2023/04/04 02:02:15;;;;;;;;;3.75;3.25;;;;;21.78;36.63;101866.09;5068370;27;45374;-69
2023/04/04 02:04:41;;;;;;;;;1.75;1.75;;;;;21.75;36.74;101862.72;5068257;27;45276;-69
2023/04/04 02:07:07;;;;;;;;;4.00;3.00;;;;;21.78;37.06;101870.56;5098403;27;63763;-70
2023/04/04 02:09:32;;;;;;;;;4.00;3.75;;;;;21.74;37.31;101859.22;5056570;27;45348;-70
2023/04/04 02:11:58;;;;;;;;;3.00;2.25;;;;;21.75;37.02;101858.25;5076113;27;45324;-70
2023/04/04 02:14:24;;;;;;;;;3.00;3.00;;;;;21.75;36.63;101858.25;5058904;27;46792;-70
2023/04/04 02:16:49;;;;;;;;;3.75;3.00;;;;;21.75;36.92;101860.91;5081224;27;45551;-70
2023/04/04 02:19:15;;;;;;;;;2.75;2.00;;;;;21.75;36.96;101854.75;5079253;27;45513;-70
2023/04/04 02:21:40;;;;;;;;;2.00;2.00;;;;;21.70;36.97;101848.81;5069972;27;46981;-70
2023/04/04 02:24:06;;;;;;;;;4.00;3.75;;;;;21.74;36.98;101850.34;5078601;27;67625;-70
2023/04/04 02:26:31;;;;;;;;;2.50;2.50;;;;;21.73;36.88;101852.16;5076413;27;45307;-70
2023/04/04 02:28:56;;;;;;;;;6.50;4.00;;;;;21.71;36.95;101846.06;5056944;27;45486;-69
2023/04/04 02:31:22;;;;;;;;;2.00;2.00;;;;;21.71;36.87;101850.50;5078659;27;45528;-69
2023/04/04 02:33:47;;;;;;;;;4.00;2.00;;;;;21.70;37.06;101854.13;5084794;27;45424;-69
2023/04/04 02:36:13;;;;;;;;;3.00;3.00;;;;;21.66;36.97;101840.13;5077965;27;57569;-70
2023/04/04 02:38:38;;;;;;;;;2.00;1.25;;;;;21.67;37.00;101844.50;5088576;27;45216;-69
2023/04/04 02:41:03;;;;;;;;;3.00;2.25;;;;;21.68;36.37;101843.56;5070985;27;45249;-69
2023/04/04 02:43:29;;;;;;;;;3.50;2.00;;;;;21.66;36.67;101842.78;5087027;27;63512;-70
2023/04/04 02:45:54;;;;;;;;;3.00;2.00;;;;;21.66;36.65;101842.78;5090572;27;45746;-70
2023/04/04 02:48:20;;;;;;;;;3.00;3.00;;;;;21.67;36.81;101839.16;5092166;27;45309;-70
2023/04/04 02:50:46;;;;;;;;;3.50;2.00;;;;;21.65;36.68;101834.88;5072842;27;45391;-69
2023/04/04 02:53:11;;;;;;;;;3.75;2.75;;;;;21.64;36.31;101830.47;5080137;27;45496;-69
2023/04/04 02:55:37;;;;;;;;;1.50;1.50;;;;;21.65;36.29;101837.53;5061310;27;46887;-69
2023/04/04 02:58:02;;;;;;;;;2.50;2.50;;;;;21.63;36.79;101837.63;5073400;27;68459;-70
2023/04/04 03:00:27;;;;;;;;;2.75;2.00;;;;;21.64;36.65;101838.47;5067184;27;57592;-70
2023/04/04 03:02:54;;;;;;;;;4.00;2.25;;;;;21.60;36.40;101837.78;5092077;27;64718;-70
2023/04/04 03:05:20;;;;;;;;;2.50;2.00;;;;;21.64;36.39;101849.13;5054772;27;45729;-69
2023/04/04 03:07:45;;;;;;;;;2.00;2.00;;;;;21.62;36.37;101846.59;5077794;27;45355;-69
2023/04/04 03:10:10;;;;;;;;;3.00;2.00;;;;;21.58;36.07;101831.69;5066007;27;45550;-69
2023/04/04 03:12:36;;;;;;;;;2.00;2.00;;;;;21.59;36.55;101833.44;5067652;27;47241;-69
2023/04/04 03:15:01;;;;;;;;;5.00;2.50;;;;;21.58;36.19;101831.69;5066703;27;72934;-70
2023/04/04 03:17:28;;;;;;;;;2.00;2.00;;;;;21.60;36.16;101833.34;5076261;27;45379;-70
2023/04/04 03:19:53;;;;;;;;;5.25;3.00;;;;;21.58;36.16;101840.56;5093379;27;45594;-70
2023/04/04 03:22:18;;;;;;;;;3.00;2.25;;;;;21.56;36.49;101836.25;5072788;27;72386;-69
2023/04/04 03:24:43;;;;;;;;;2.75;1.75;;;;;21.55;36.29;101837.22;5071081;27;65500;-69
2023/04/04 03:27:10;;;;;;;;;3.25;3.25;;;;;21.54;36.28;101830.16;5085290;27;58283;-69
2023/04/04 03:29:35;;;;;;;;;3.25;2.25;;;;;21.53;36.21;101837.28;5065107;27;45713;-68
2023/04/04 03:32:00;;;;;;;;;2.75;2.75;;;;;21.55;36.58;101837.22;5079465;27;70171;-68
2023/04/04 03:34:26;;;;;;;;;1.50;1.50;;;;;21.53;36.51;101834.63;5072976;27;45704;-69
2023/04/04 03:36:52;;;;;;;;;3.25;3.25;;;;;21.52;36.57;101832.06;5082934;27;45368;-69
2023/04/04 03:39:18;;;;;;;;;1.50;1.50;;;;;21.54;36.48;101838.16;5076087;27;45578;-69
2023/04/04 03:41:43;;;;;;;;;2.00;2.00;;;;;21.54;36.34;101846.13;5075928;27;47210;-68
2023/04/04 03:44:09;;;;;;;;;3.00;2.25;;;;;21.52;35.91;101840.03;5062611;27;73072;-69
2023/04/04 03:46:34;;;;;;;;;2.25;2.25;;;;;21.50;36.43;101840.13;5074037;27;45369;-69
2023/04/04 03:48:59;;;;;;;;;4.25;2.00;;;;;21.50;36.02;101839.28;5060514;27;45581;-70
2023/04/04 03:51:26;;;;;;;;;2.50;1.25;;;;;21.49;36.22;101841.06;5084273;27;45483;-69
2023/04/04 03:53:51;;;;;;;;;3.25;2.00;;;;;21.51;36.44;101848.97;5073401;27;45438;-69
2023/04/04 03:56:17;;;;;;;;;3.50;2.00;;;;;21.50;36.28;101850.78;5072219;27;45393;-69
2023/04/04 03:58:42;;;;;;;;;1.50;1.50;;;;;21.47;36.03;101842.09;5069805;27;45230;-69
2023/04/04 04:01:07;;;;;;;;;2.00;1.25;;;;;21.47;36.10;101842.94;5075710;27;65521;-69
2023/04/04 04:03:33;;;;;;;;;4.00;3.00;;;;;21.47;36.17;101842.09;5076800;27;72816;-69
2023/04/04 04:05:59;;;;;;;;;2.75;2.50;;;;;21.47;35.98;101852.75;5081267;27;45757;-69
2023/04/04 04:08:24;;;;;;;;;2.75;1.00;;;;;21.47;36.34;101852.75;5058069;28;45546;-69
2023/04/04 04:10:50;;;;;;;;;2.00;2.00;;;;;21.45;35.99;101851.94;5081312;27;70016;-69
2023/04/04 04:13:15;;;;;;;;;1.00;1.00;;;;;21.44;35.88;101864.38;5094847;27;45485;-69
2023/04/04 04:15:40;;;;;;;;;3.00;2.00;;;;;21.44;35.86;101869.72;5072911;27;69163;-69
2023/04/04 04:18:06;;;;;;;;;4.50;2.00;;;;;21.46;35.84;101867.00;5091762;27;64464;-70
2023/04/04 04:20:31;;;;;;;;;2.00;2.00;;;;;21.38;36.07;101860.25;5083384;27;53955;-70
2023/04/04 04:22:56;;;;;;;;;2.00;2.00;;;;;21.43;35.78;101868.84;5068743;27;68232;-69
2023/04/04 04:25:22;;;;;;;;;2.00;2.00;;;;;21.43;35.74;101878.66;5074530;27;46001;-69
2023/04/04 04:27:47;;;;;;;;;2.25;2.00;;;;;21.39;36.25;101879.78;5090515;27;45654;-69
2023/04/04 04:30:13;;;;;;;;;2.75;2.00;;;;;21.38;35.76;101888.69;5065498;27;48188;-70
2023/04/04 04:32:38;;;;;;;;;3.25;2.50;;;;;21.36;36.34;101886.13;5101739;27;45416;-70
2023/04/04 04:35:04;;;;;;;;;3.25;2.25;;;;;21.36;35.65;101882.59;5083314;27;45382;-69
2023/04/04 04:37:29;;;;;;;;;1.75;1.25;;;;;21.39;35.59;101885.09;5076911;27;45644;-69
2023/04/04 04:39:55;;;;;;;;;2.00;2.00;;;;;21.35;35.98;101884.38;5056622;27;73866;-69
2023/04/04 04:42:20;;;;;;;;;2.00;2.00;;;;;21.35;35.68;101883.53;5071163;27;45308;-69
2023/04/04 04:44:46;;;;;;;;;2.00;2.00;;;;;21.35;35.88;101883.53;5066735;27;45545;-69
2023/04/04 04:47:11;;;;;;;;;3.00;2.00;;;;;21.36;35.99;101896.75;5094144;27;63235;-69
2023/04/04 04:49:36;;;;;;;;;1.75;1.75;;;;;21.33;36.02;101888.94;5076798;27;47501;-69
2023/04/04 04:52:02;;;;;;;;;1.00;1.00;;;;;21.33;35.53;101888.94;5086969;27;45724;-69
2023/04/04 04:54:27;;;;;;;;;2.00;2.00;;;;;21.35;35.63;101887.03;5081651;27;60596;-69
2023/04/04 04:56:53;;;;;;;;;1.25;1.25;;;;;21.33;36.00;101886.28;5089317;27;45259;-69
2023/04/04 04:59:18;;;;;;;;;1.00;1.00;;;;;21.32;35.87;101887.22;5075208;27;46177;-69
2023/04/04 05:01:44;;;;;;;;;3.00;1.00;;;;;21.30;35.63;101882.91;5086567;27;45254;-69
2023/04/04 05:04:09;;;;;;;;;3.00;3.00;;;;;21.31;35.62;101882.84;5095890;27;45396;-69
2023/04/04 05:06:35;;;;;;;;;2.50;1.50;;;;;21.30;35.66;101880.25;5080488;27;45393;-69
2023/04/04 05:09:01;;;;;;;;;2.00;2.00;;;;;21.32;35.78;101883.69;5074860;27;45601;-69
2023/04/04 05:11:26;;;;;;;;;2.00;2.00;;;;;21.29;35.61;101884.72;5089361;27;45351;-69
2023/04/04 05:13:51;;;;;;;;;2.25;2.25;;;;;21.29;35.56;101882.06;5085397;27;45513;-69
2023/04/04 05:16:19;;;;;;;;;3.75;3.00;;;;;21.28;35.54;101879.47;5076861;27;45420;-69
2023/04/04 05:18:44;;;;;;;;;2.00;2.00;;;;;21.27;35.62;101880.44;5076189;27;45525;-70
2023/04/04 05:21:10;;;;;;;;;2.00;2.00;;;;;21.27;35.86;101878.63;5081652;27;45311;-70
2023/04/04 05:23:35;;;;;;;;;2.50;2.00;;;;;21.27;35.78;101875.13;5073393;27;45315;-69
2023/04/04 05:26:01;;;;;;;;;1.75;1.00;;;;;21.24;36.00;101869.00;5082281;27;46954;-69
2023/04/04 05:28:27;;;;;;;;;2.00;2.00;;;;;21.28;35.57;101868.84;5064196;27;45461;-69
2023/04/04 05:30:52;;;;;;;;;1.75;1.50;;;;;21.25;35.48;101867.22;5058519;27;51829;-70
2023/04/04 05:33:18;;;;;;;;;1.75;1.75;;;;;21.24;35.87;101863.66;5074495;27;45342;-70
2023/04/04 05:35:43;;;;;;;;;3.25;2.75;;;;;21.22;35.75;101867.38;5062281;27;45506;-72
2023/04/04 05:38:09;;;;;;;;;4.25;3.00;;;;;21.24;35.17;101870.81;5095684;27;70856;-75
2023/04/04 05:40:34;;;;;;;;;3.50;3.50;;;;;21.18;35.48;101866.66;5093356;27;45402;-73
2023/04/04 05:43:03;;;;;;;;;2.75;2.25;;;;;21.14;35.00;101867.78;5063109;27;45531;-71
2023/04/04 05:45:29;;;;;;;;;4.75;3.00;;;;;21.16;35.29;101873.88;5073095;27;45545;-73
2023/04/04 05:47:54;;;;;;;;;4.00;3.00;;;;;21.09;34.77;101874.28;5063687;27;46940;-75
2023/04/04 05:50:20;;;;;;;;;3.25;3.00;;;;;21.13;34.80;101886.50;5074703;27;45463;-74
2023/04/04 05:52:45;;;;;;;;;3.00;3.00;;;;;21.14;34.66;101893.53;5087510;27;46394;-74
2023/04/04 05:55:11;;;;;;;;;3.25;3.00;;;;;21.11;34.62;101894.56;5082072;27;45454;-74
2023/04/04 05:57:36;;;;;;;;;7.00;3.00;;;;;21.11;34.68;101897.22;5075835;27;45512;-71
2023/04/04 06:00:04;;;;;;;;;6.50;5.50;;;;;21.07;34.36;101902.78;5090355;27;45921;-77
2023/04/04 06:02:30;;;;;;;;;7.00;4.00;;;;;21.04;34.17;101902.00;5069179;27;45427;-77
2023/04/04 06:04:55;;;;;;;;;6.75;4.75;;;;;20.98;33.62;101901.47;5064351;27;45391;-75
2023/04/04 06:07:20;;;;;;;;;5.75;5.00;;;;;20.93;33.84;101907.03;5076536;27;65286;-76
2023/04/04 06:09:46;;;;;;;;;7.00;4.00;;;;;20.86;33.33;101898.50;5092166;27;45274;-73
2023/04/04 06:12:11;;;;;;;;;6.00;5.25;;;;;20.85;33.27;101903.91;5098149;27;60285;-73
2023/04/04 06:14:36;;;;;;;;;4.75;3.75;;;;;20.81;33.49;101908.53;5063141;27;69366;-70
2023/04/04 06:17:03;;;;;;;;;4.75;3.00;;;;;20.81;33.13;101921.81;5074552;27;67841;-71
2023/04/04 06:19:28;;;;;;;;;4.25;3.00;;;;;20.81;33.70;101920.97;5073155;27;45288;-69
2023/04/04 06:21:53;;;;;;;;;2.75;2.50;;;;;20.80;33.56;101921.91;5068713;27;68989;-68
2023/04/04 06:24:19;;;;;;;;;4.25;3.00;;;;;20.82;33.61;101935.97;5056547;27;70965;-69
2023/04/04 06:26:44;;;;;;;;;2.00;2.00;;;;;20.82;33.58;101934.19;5091783;27;46234;-69
2023/04/04 06:29:10;;;;;;;;;2.50;2.25;;;;;20.83;33.78;101927.06;5072540;27;47179;-69
2023/04/04 06:31:35;;;;;;;;;3.50;3.50;;;;;20.85;33.71;101938.50;5080403;27;45420;-70
2023/04/04 06:34:01;;;;;;;;;3.25;2.00;;;;;20.85;33.69;101933.16;5096042;27;45433;-68
2023/04/04 06:36:26;;;;;;;;;2.00;2.00;;;;;20.81;33.64;101924.50;5069658;27;46565;-73
2023/04/04 06:38:51;;;;;;;;;6.25;3.00;;;;;20.89;33.75;101936.53;5078993;27;57965;-69
2023/04/04 06:41:17;;;;;;;;;3.50;2.00;;;;;20.91;33.61;101940.84;5092206;27;65945;-70
2023/04/04 06:43:42;;;;;;;;;4.00;3.00;;;;;20.91;34.11;101939.97;5072040;27;45457;-72
2023/04/04 06:46:08;;;;;;;;;4.50;2.00;;;;;20.94;34.14;101953.97;5064029;27;46989;-71
2023/04/04 06:48:33;;;;;;;;;2.75;2.75;;;;;20.97;34.09;101947.66;5069052;27;67486;-68
2023/04/04 06:50:58;;;;;;;;;5.50;3.00;;;;;21.00;33.80;101967.00;5070329;27;45480;-69
2023/04/04 06:53:24;;;;;;;;;3.00;3.00;;;;;21.00;34.17;101958.13;5088886;27;52472;-69
2023/04/04 06:55:50;;;;;;;;;4.00;2.75;;;;;21.04;34.43;101957.91;5070552;27;74081;-70
2023/04/04 06:58:16;;;;;;;;;4.75;3.00;;;;;21.05;33.83;101956.09;5082414;27;45378;-71
2023/04/04 07:00:41;;;;;;;;;4.00;3.00;;;;;21.04;34.22;101951.72;5068125;27;66987;-71
2023/04/04 07:03:09;;;;;;;;;2.00;2.00;;;;;21.10;34.11;101964.69;5091129;27;65066;-71
2023/04/04 07:05:38;;;;;;;;;4.00;3.00;;;;;21.11;34.56;101970.91;5092528;27;45385;-70
2023/04/04 07:08:03;;;;;;;;;4.25;2.50;;;;;21.11;34.55;101971.75;5088508;27;45540;-71
2023/04/04 07:10:29;;;;;;;;;3.00;1.25;;;;;21.11;34.76;101958.44;5087583;27;45271;-71
2023/04/04 07:12:54;;;;;;;;;1.50;1.50;;;;;21.14;34.79;101962.75;5103628;27;45366;-70
2023/04/04 07:15:20;;;;;;;;;2.25;1.50;;;;;21.16;34.46;101958.19;5086867;27;46755;-69
2023/04/04 07:17:46;;;;;;;;;3.00;2.50;;;;;21.18;34.40;101970.50;5084281;27;45571;-71
2023/04/04 07:20:11;;;;;;;;;4.00;2.00;;;;;21.19;34.68;101969.53;5071076;27;45526;-74
2023/04/04 07:22:38;;;;;;;;;4.00;2.00;;;;;21.18;34.68;101974.97;5083511;27;45303;-72
2023/04/04 07:25:04;;;;;;;;;2.25;2.00;;;;;21.20;34.45;101973.09;5080191;27;48126;-68
2023/04/04 07:27:29;;;;;;;;;3.00;1.00;;;;;21.20;34.83;101965.94;5095746;27;45541;-70
2023/04/04 07:29:54;;;;;;;;;3.25;2.00;;;;;21.22;34.80;101968.53;5096076;27;45544;-69
2023/04/04 07:32:20;;;;;;;;;4.00;3.00;;;;;21.24;34.90;101970.16;5079075;27;47268;-69
2023/04/04 07:34:46;;;;;;;;;4.00;1.00;;;;;21.22;34.92;101964.06;5098772;27;68676;-69
2023/04/04 07:37:11;;;;;;;;;3.50;2.00;;;;;21.22;34.98;101958.72;5091714;27;45809;-69
2023/04/04 07:39:37;;;;;;;;;2.25;2.00;;;;;21.21;34.71;101956.16;5102553;27;45345;-69
2023/04/04 07:42:02;;;;;;;;;2.00;2.00;;;;;21.24;34.37;101967.50;5091387;27;45414;-69
2023/04/04 07:44:28;;;;;;;;;3.25;2.00;;;;;21.27;34.68;101962.97;5059006;28;47144;-69
2023/04/04 07:46:53;;;;;;;;;4.75;3.00;;;;;21.23;34.68;101960.47;5074337;27;73380;-69
2023/04/04 07:49:18;;;;;;;;;2.25;1.00;;;;;21.22;34.75;101968.53;5078225;27;55416;-69
2023/04/04 07:51:43;;;;;;;;;3.00;3.00;;;;;21.24;34.51;101964.84;5102290;27;73016;-69
2023/04/04 07:54:09;;;;;;;;;3.00;2.00;;;;;21.24;34.56;101961.31;5084556;27;45250;-69
2023/04/04 07:56:35;;;;;;;;;2.50;1.75;;;;;21.26;34.68;101958.59;5101689;27;45185;-69
2023/04/04 07:59:00;;;;;;;;;2.50;1.00;;;;;21.23;34.38;101960.47;5085299;27;45344;-69
2023/04/04 08:01:26;;;;;;;;;2.00;2.00;;;;;21.25;34.74;101952.41;5091869;27;45559;-69
2023/04/04 08:03:52;;;;;;;;;1.00;0.25;;;;;21.23;34.27;101956.97;5101099;27;45914;-69
2023/04/04 08:06:17;;;;;;;;;2.00;1.00;;;;;21.19;34.78;101947.38;5100863;27;45676;-69
2023/04/04 08:08:43;;;;;;;;;2.00;2.00;;;;;21.23;34.35;101960.47;5076294;27;50827;-69
2023/04/04 08:11:09;;;;;;;;;2.00;1.00;;;;;21.24;34.33;101953.34;5067779;27;45340;-69
2023/04/04 08:13:34;;;;;;;;;2.00;2.00;;;;;21.23;34.45;101957.81;5096769;27;72653;-68
2023/04/04 08:15:59;;;;;;;;;5.50;2.00;;;;;21.25;34.74;101952.41;5080406;27;59299;-69
2023/04/04 08:18:25;;;;;;;;;3.00;2.00;;;;;21.23;34.51;101955.16;5071290;28;61243;-69
2023/04/04 08:20:51;;;;;;;;;4.00;2.25;;;;;21.22;34.30;101949.91;5061571;28;45601;-69
2023/04/04 08:23:16;;;;;;;;;3.00;2.00;;;;;21.24;34.35;101946.19;5074668;27;73186;-69
2023/04/04 08:25:43;;;;;;;;;1.00;1.00;;;;;21.22;34.75;101953.41;5079647;27;51523;-69
2023/04/04 08:28:09;;;;;;;;;2.25;2.25;;;;;21.21;34.27;101945.50;5084437;27;45336;-69
2023/04/04 08:30:34;;;;;;;;;3.00;3.00;;;;;21.23;34.19;101955.16;5096828;27;45153;-68
2023/04/04 08:33:00;;;;;;;;;1.25;1.25;;;;;21.20;34.36;101949.97;5088528;27;58998;-69
2023/04/04 08:35:25;;;;;;;;;2.75;1.50;;;;;21.21;34.50;101962.34;5094491;27;62983;-69
2023/04/04 08:37:50;;;;;;;;;3.00;1.00;;;;;21.23;34.19;101954.28;5100567;27;45415;-69
2023/04/04 08:40:16;;;;;;;;;7.00;2.25;;;;;21.22;34.16;101952.56;5101484;27;45221;-69
2023/04/04 08:42:43;;;;;;;;;4.00;2.00;;;;;21.19;34.50;101958.88;5079740;28;70192;-69
2023/04/04 08:45:10;;;;;;;;;2.00;2.00;;;;;21.22;34.20;101955.22;5078028;27;45641;-69
2023/04/04 08:47:37;;;;;;;;;1.25;1.25;;;;;21.21;34.61;101951.72;5102447;27;45348;-68
2023/04/04 08:50:05;;;;;;;;;2.50;2.00;;;;;21.20;34.06;101955.31;5101678;27;45557;-69
2023/04/04 08:52:32;;;;;;;;;3.25;2.00;;;;;21.20;34.51;101962.44;5079911;27;47220;-69
2023/04/04 08:54:57;;;;;;;;;4.25;1.00;;;;;21.17;34.47;101957.25;5082940;27;45495;-69
2023/04/04 08:57:23;;;;;;;;;3.00;3.00;;;;;21.19;34.12;101964.22;5098983;27;64186;-69
2023/04/04 08:59:48;;;;;;;;;2.00;2.00;;;;;21.20;34.53;101971.28;5099018;27;45488;-69
2023/04/04 09:02:24;;;;;;;;;2.00;2.00;;;;;21.14;34.45;101958.28;5100381;27;74099;-69
2023/04/04 09:04:51;;;;;;;;;2.00;2.00;;;;;21.14;34.54;101955.63;5098356;27;45523;-69
2023/04/04 09:07:18;;;;;;;;;1.00;1.00;;;;;21.13;33.97;101955.72;5099581;27;45485;-69
2023/04/04 09:09:44;;;;;;;;;2.00;1.00;;;;;21.18;34.01;101965.16;5085502;27;45336;-69
2023/04/04 09:12:12;;;;;;;;;3.50;1.75;;;;;21.17;34.10;101968.75;5083587;27;46314;-69
2023/04/04 09:14:39;;;;;;;;;1.75;1.75;;;;;21.18;34.21;101969.66;5064692;27;45986;-69
2023/04/04 09:17:04;;;;;;;;;2.00;1.00;;;;;21.16;34.39;101961.72;5064265;28;45538;-69
2023/04/04 09:19:30;;;;;;;;;2.00;1.00;;;;;21.16;34.01;101963.50;5098833;27;45318;-69
2023/04/04 09:21:55;;;;;;;;;1.75;1.00;;;;;21.15;34.02;101965.31;5101276;27;46327;-69
2023/04/04 09:24:21;;;;;;;;;1.00;1.00;;;;;21.16;34.19;101969.72;5100733;27;45456;-70
2023/04/04 09:26:56;;;;;;;;;1.25;1.00;;;;;21.16;34.14;101968.84;5097569;27;47823;-69
2023/04/04 09:29:22;;;;;;;;;2.25;2.25;;;;;21.15;34.00;101964.47;5083200;27;45369;-69
2023/04/04 09:31:48;;;;;;;;;2.00;2.00;;;;;21.15;34.24;101960.00;5096548;27;46285;-69
2023/04/04 09:34:18;;;;;;;;;3.75;2.00;;;;;21.13;33.82;101951.25;5074777;27;45614;-69
2023/04/04 09:36:44;;;;;;;;;2.00;1.00;;;;;21.13;34.05;101955.72;5071675;27;45447;-70
2023/04/04 09:39:10;;;;;;;;;2.00;2.00;;;;;21.15;34.09;101959.16;5065741;27;45300;-69
2023/04/04 09:41:39;;;;;;;;;5.00;1.00;;;;;21.13;33.85;101958.38;5082844;27;46349;-69
2023/04/04 09:44:06;;;;;;;;;3.00;2.00;;;;;21.13;34.39;101958.38;5083680;27;45394;-69
2023/04/04 09:46:32;;;;;;;;;2.50;2.25;;;;;21.14;33.88;101960.06;5065243;27;45258;-69
2023/04/04 09:48:59;;;;;;;;;5.00;2.00;;;;;21.14;34.21;101966.28;5075283;28;45624;-69
2023/04/04 09:51:32;;;;;;;;;2.25;1.50;;;;;21.14;33.86;101957.41;5077396;27;67136;-69
2023/04/04 09:53:58;;;;;;;;;2.25;2.00;;;;;21.12;33.90;101957.50;5073921;27;45821;-69
2023/04/04 09:56:23;;;;;;;;;2.00;2.00;;;;;21.11;34.06;101946.94;5081695;27;69336;-70
2023/04/04 09:58:48;;;;;;;;;3.25;2.00;;;;;21.13;33.82;101947.72;5073095;28;62024;-69
2023/04/04 10:01:14;;;;;;;;;4.00;2.00;;;;;21.11;33.87;101947.81;5075791;27;61799;-69
2023/04/04 10:03:39;;;;;;;;;2.00;2.00;;;;;21.11;34.29;101950.47;5070097;28;71134;-69
2023/04/04 10:06:06;;;;;;;;;1.00;1.00;;;;;21.12;34.19;101949.50;5078283;27;65486;-69
2023/04/04 10:08:32;;;;;;;;;2.50;1.00;;;;;21.10;33.73;101948.72;5056699;27;45579;-69
2023/04/04 10:10:59;;;;;;;;;5.00;2.00;;;;;21.12;33.64;101954.81;5065954;27;47133;-69
2023/04/04 10:13:25;;;;;;;;;2.00;2.00;;;;;21.12;33.77;101954.81;5073690;27;45376;-69
2023/04/04 10:15:54;;;;;;;;;4.00;2.00;;;;;21.10;33.83;101953.19;5070796;28;45215;-69
2023/04/04 10:18:25;;;;;;;;;1.00;1.00;;;;;21.10;34.00;101942.56;5074717;27;45465;-68
2023/04/04 10:20:52;;;;;;;;;2.25;2.25;;;;;21.10;33.89;101945.22;5081639;27;45279;-69
2023/04/04 10:23:18;;;;;;;;;2.75;2.75;;;;;21.12;33.74;101953.97;5064846;27;45715;-69
2023/04/04 10:25:44;;;;;;;;;1.00;1.00;;;;;21.10;33.81;101953.19;5081156;27;45387;-69
2023/04/04 10:28:10;;;;;;;;;2.00;2.00;;;;;21.10;34.17;101951.38;5081162;27;45473;-69
2023/04/04 10:30:43;;;;;;;;;2.50;2.00;;;;;21.10;33.91;101943.41;5081575;27;45386;-69
2023/04/04 10:33:14;;;;;;;;;4.25;2.25;;;;;21.10;33.68;101945.22;5079076;27;45485;-69
2023/04/04 10:35:44;;;;;;;;;2.00;1.00;;;;;21.11;33.70;101950.47;5082115;27;45346;-69
2023/04/04 10:38:13;;;;;;;;;3.00;2.00;;;;;21.09;33.99;101947.03;5064907;28;45574;-69
2023/04/04 10:40:41;;;;;;;;;2.00;2.00;;;;;21.09;34.21;101946.13;5078623;28;45260;-69
2023/04/04 10:43:07;;;;;;;;;2.00;1.75;;;;;21.12;33.64;101946.00;5078202;28;45841;-69
2023/04/04 10:45:37;;;;;;;;;3.00;1.00;;;;;21.09;33.80;101949.69;5065418;28;45423;-70
2023/04/04 10:48:03;;;;;;;;;4.50;2.00;;;;;21.11;33.60;101939.81;5064957;28;45523;-69
2023/04/04 10:50:30;;;;;;;;;2.00;1.25;;;;;21.11;33.68;101947.81;5059982;28;45475;-69
2023/04/04 10:52:58;;;;;;;;;1.00;1.00;;;;;21.13;33.78;101951.25;5045529;28;45238;-69
2023/04/04 10:55:24;;;;;;;;;2.00;1.00;;;;;21.13;33.94;101935.25;5045666;28;45355;-69
2023/04/04 10:57:52;;;;;;;;;2.50;1.00;;;;;21.16;33.75;101934.22;5072324;28;45395;-69
2023/04/04 11:00:19;;;;;;;;;1.50;1.50;;;;;21.17;33.78;101933.31;5063160;28;47026;-69
2023/04/04 11:02:53;;;;;;;;;2.50;2.25;;;;;21.21;33.76;101934.84;5075981;27;45720;-69
2023/04/04 11:05:36;;;;;;;;;1.75;1.00;;;;;21.21;33.55;101932.19;5080887;27;45427;-69
2023/04/04 11:08:05;;;;;;;;;2.00;1.00;;;;;21.23;33.81;101933.84;5050752;27;45442;-69
2023/04/04 11:10:34;;;;;;;;;2.00;1.00;;;;;21.25;34.09;101928.44;5076209;28;46324;-69
2023/04/04 11:13:06;;;;;;;;;1.75;1.00;;;;;21.26;34.09;101915.97;5083035;27;45754;-69
2023/04/04 11:15:55;;;;;;;;;1.75;0.75;;;;;21.27;34.16;101910.59;5071826;27;45303;-69
2023/04/04 11:18:22;;;;;;;;;2.50;1.50;;;;;21.27;33.89;101913.25;5054658;28;45621;-69
2023/04/04 11:20:48;;;;;;;;;2.00;1.00;;;;;21.30;33.56;101912.22;5079162;28;45444;-69